Time,TemperatureF,DewpointF,PressureIn,WindDirection,WindDirectionDegrees,WindSpeedMPH,WindSpeedGustMPH,Humidity,HourlyPrecipIn,Conditions,Clouds,dailyrainin,SoftwareType,DateUTC
2013-05-30 00:11:00,72.7,66.5,30.02,SSW,202,1.7,-999.0,81,-99.99,,,0.00,Acu-Link.com,2013-05-30 04:11:00,
2013-05-30 00:26:00,72.7,66.9,30.02,SSW,202,1.1,-999.0,82,-99.99,,,0.00,Acu-Link.com,2013-05-30 04:26:00,
2013-05-30 00:41:00,72.5,66.7,30.01,WSW,247,2.2,-999.0,82,-99.99,,,0.00,Acu-Link.com,2013-05-30 04:41:00,
2013-05-30 00:57:00,72.3,66.8,30.01,SW,225,2.2,-999.0,83,-99.99,,,0.00,Acu-Link.com,2013-05-30 04:57:00,
2013-05-30 01:12:00,72.3,66.8,30.02,ESE,112,0.0,-999.0,83,-99.99,,,0.00,Acu-Link.com,2013-05-30 05:12:00,
2013-05-30 01:27:00,72.1,66.6,30.02,SW,225,1.7,-999.0,83,-99.99,,,0.00,Acu-Link.com,2013-05-30 05:27:00,
2013-05-30 01:42:00,71.8,66.7,30.01,SSW,202,2.2,-999.0,84,-99.99,,,0.00,Acu-Link.com,2013-05-30 05:42:00,
2013-05-30 01:57:00,71.8,66.7,30.01,West,270,0.0,-999.0,84,-99.99,,,0.00,Acu-Link.com,2013-05-30 05:57:00,
2013-05-30 02:12:00,71.6,66.8,30.02,West,270,1.7,-999.0,85,-99.99,,,0.00,Acu-Link.com,2013-05-30 06:12:00,
2013-05-30 02:27:00,70.9,66.5,30.02,SSW,202,0.0,-999.0,86,-99.99,,,0.00,Acu-Link.com,2013-05-30 06:27:00,
2013-05-30 02:42:00,70.5,66.8,30.01,SSW,202,0.0,-999.0,88,-99.99,,,0.00,Acu-Link.com,2013-05-30 06:42:00,
2013-05-30 03:13:00,70.0,66.3,30.01,SE,135,0.0,-999.0,88,-99.99,,,0.00,Acu-Link.com,2013-05-30 07:13:00,
2013-05-30 03:28:00,69.3,66.2,30.01,SSW,202,0.0,-999.0,90,-99.99,,,0.00,Acu-Link.com,2013-05-30 07:28:00,
2013-05-30 03:43:00,69.1,66.0,30.01,SSW,202,0.0,-999.0,90,-99.99,,,0.00,Acu-Link.com,2013-05-30 07:43:00,
2013-05-30 03:58:00,68.5,65.4,30.02,North,0,0.0,-999.0,90,-99.99,,,0.00,Acu-Link.com,2013-05-30 07:58:00,
2013-05-30 04:13:00,68.5,65.4,30.02,North,0,0.0,-999.0,90,-99.99,,,0.00,Acu-Link.com,2013-05-30 08:13:00,
2013-05-30 04:29:00,68.2,65.1,30.02,North,0,0.0,-999.0,90,-99.99,,,0.00,Acu-Link.com,2013-05-30 08:29:00,
2013-05-30 04:44:00,67.8,64.8,30.03,North,0,0.0,-999.0,90,-99.99,,,0.00,Acu-Link.com,2013-05-30 08:44:00,
2013-05-30 04:59:00,67.6,64.9,30.02,North,0,0.0,-999.0,91,-99.99,,,0.00,Acu-Link.com,2013-05-30 08:59:00,
2013-05-30 05:14:00,67.6,65.2,30.02,North,0,0.0,-999.0,92,-99.99,,,0.00,Acu-Link.com,2013-05-30 09:14:00,
2013-05-30 05:29:00,67.5,65.1,30.02,NW,315,0.0,-999.0,92,-99.99,,,0.00,Acu-Link.com,2013-05-30 09:29:00,
2013-05-30 05:44:00,66.7,64.3,30.03,North,0,0.0,-999.0,92,-99.99,,,0.00,Acu-Link.com,2013-05-30 09:44:00,
2013-05-30 05:59:00,66.6,64.5,30.03,North,0,0.0,-999.0,93,-99.99,,,0.00,Acu-Link.com,2013-05-30 09:59:00,
2013-05-30 06:14:00,66.7,64.6,30.04,North,0,0.0,-999.0,93,-99.99,,,0.00,Acu-Link.com,2013-05-30 10:14:00,
2013-05-30 06:30:00,67.3,65.5,30.05,North,0,0.0,-999.0,94,-99.99,,,0.00,Acu-Link.com,2013-05-30 10:30:00,
2013-05-30 06:45:00,68.0,66.2,30.05,North,0,0.0,-999.0,94,-99.99,,,0.00,Acu-Link.com,2013-05-30 10:45:00,
2013-05-30 07:00:00,71.4,69.6,30.06,North,0,0.0,-999.0,94,-99.99,,,0.00,Acu-Link.com,2013-05-30 11:00:00,
2013-05-30 07:15:00,73.0,70.5,30.06,ENE,67,0.0,-999.0,92,-99.99,,,0.00,Acu-Link.com,2013-05-30 11:15:00,
2013-05-30 07:30:00,73.9,70.4,30.07,NNE,22,0.0,-999.0,89,-99.99,,,0.00,Acu-Link.com,2013-05-30 11:30:00,
2013-05-30 07:45:00,74.7,68.5,30.07,South,180,0.0,-999.0,81,-99.99,,,0.00,Acu-Link.com,2013-05-30 11:45:00,
2013-05-30 08:00:00,75.7,68.7,30.07,South,180,0.0,-999.0,79,-99.99,,,0.00,Acu-Link.com,2013-05-30 12:00:00,
2013-05-30 08:15:00,76.5,69.1,30.07,SSW,202,0.0,-999.0,78,-99.99,,,0.00,Acu-Link.com,2013-05-30 12:15:00,
2013-05-30 08:30:00,77.4,68.8,30.08,West,270,1.7,-999.0,75,-99.99,,,0.00,Acu-Link.com,2013-05-30 12:30:00,
2013-05-30 08:46:00,76.6,68.1,30.07,WSW,247,0.0,-999.0,75,-99.99,,,0.00,Acu-Link.com,2013-05-30 12:46:00,
2013-05-30 09:01:00,78.1,68.7,30.09,SSW,202,4.2,-999.0,73,-99.99,,,0.00,Acu-Link.com,2013-05-30 13:01:00,
2013-05-30 09:16:00,78.3,68.9,30.07,SSW,202,2.2,-999.0,73,-99.99,,,0.00,Acu-Link.com,2013-05-30 13:16:00,
2013-05-30 09:31:00,79.3,69.5,30.08,SW,225,1.7,-999.0,72,-99.99,,,0.00,Acu-Link.com,2013-05-30 13:31:00,
2013-05-30 09:46:00,80.8,70.1,30.07,ESE,112,2.2,-999.0,70,-99.99,,,0.00,Acu-Link.com,2013-05-30 13:46:00,
2013-05-30 10:01:00,80.4,70.1,30.06,SW,225,2.7,-999.0,71,-99.99,,,0.00,Acu-Link.com,2013-05-30 14:01:00,
2013-05-30 10:16:00,81.1,70.4,30.06,SSW,202,3.7,-999.0,70,-99.99,,,0.00,Acu-Link.com,2013-05-30 14:16:00,
2013-05-30 10:31:00,81.1,70.4,30.06,South,180,2.7,-999.0,70,-99.99,,,0.00,Acu-Link.com,2013-05-30 14:31:00,
2013-05-30 10:46:00,81.3,70.6,30.06,SSE,157,2.2,-999.0,70,-99.99,,,0.00,Acu-Link.com,2013-05-30 14:46:00,
2013-05-30 11:02:00,80.2,70.3,30.06,ESE,112,1.7,-999.0,72,-99.99,,,0.00,Acu-Link.com,2013-05-30 15:02:00,
2013-05-30 11:17:00,80.8,70.5,30.05,South,180,2.2,-999.0,71,-99.99,,,0.00,Acu-Link.com,2013-05-30 15:17:00,
2013-05-30 11:32:00,82.8,71.1,30.05,SW,225,2.2,-999.0,68,-99.99,,,0.00,Acu-Link.com,2013-05-30 15:32:00,
2013-05-30 11:47:00,82.6,70.9,30.05,SSW,202,3.2,-999.0,68,-99.99,,,0.00,Acu-Link.com,2013-05-30 15:47:00,
2013-05-30 12:02:00,83.1,71.4,30.05,ESE,112,2.2,-999.0,68,-99.99,,,0.00,Acu-Link.com,2013-05-30 16:02:00,
2013-05-30 12:17:00,84.0,71.8,30.06,South,180,2.2,-999.0,67,-99.99,,,0.00,Acu-Link.com,2013-05-30 16:17:00,
2013-05-30 12:32:00,83.3,71.2,30.04,SW,225,3.7,-999.0,67,-99.99,,,0.00,Acu-Link.com,2013-05-30 16:32:00,
2013-05-30 12:47:00,84.4,71.8,30.04,SE,135,3.2,-999.0,66,-99.99,,,0.00,Acu-Link.com,2013-05-30 16:47:00,
2013-05-30 13:02:00,83.1,71.0,30.04,SSW,202,1.7,-999.0,67,-99.99,,,0.00,Acu-Link.com,2013-05-30 17:02:00,
2013-05-30 13:18:00,84.2,71.1,30.05,South,180,2.7,-999.0,65,-99.99,,,0.00,Acu-Link.com,2013-05-30 17:18:00,
2013-05-30 13:33:00,83.5,70.9,30.04,SSW,202,1.7,-999.0,66,-99.99,,,0.00,Acu-Link.com,2013-05-30 17:33:00,
2013-05-30 13:48:00,84.4,71.8,30.04,South,180,2.2,-999.0,66,-99.99,,,0.00,Acu-Link.com,2013-05-30 17:48:00,
2013-05-30 14:03:00,84.9,72.2,30.05,SW,225,4.2,-999.0,66,-99.99,,,0.00,Acu-Link.com,2013-05-30 18:03:00,
2013-05-30 14:18:00,84.6,72.0,30.05,SSW,202,4.7,-999.0,66,-99.99,,,0.00,Acu-Link.com,2013-05-30 18:18:00,
2013-05-30 14:33:00,83.7,72.0,30.04,SW,225,2.7,-999.0,68,-99.99,,,0.00,Acu-Link.com,2013-05-30 18:33:00,
2013-05-30 14:48:00,84.9,72.2,30.03,SW,225,2.7,-999.0,66,-99.99,,,0.00,Acu-Link.com,2013-05-30 18:48:00,
2013-05-30 15:03:00,84.4,72.2,30.03,West,270,2.7,-999.0,67,-99.99,,,0.00,Acu-Link.com,2013-05-30 19:03:00,
2013-05-30 15:18:00,85.1,72.9,30.03,SW,225,2.2,-999.0,67,-99.99,,,0.00,Acu-Link.com,2013-05-30 19:18:00,
2013-05-30 15:34:00,83.7,72.0,30.03,WSW,247,3.2,-999.0,68,-99.99,,,0.00,Acu-Link.com,2013-05-30 19:34:00,
2013-05-30 15:49:00,84.6,72.0,30.03,SW,225,3.7,-999.0,66,-99.99,,,0.00,Acu-Link.com,2013-05-30 19:49:00,
2013-05-30 16:04:00,83.5,71.8,30.01,WSW,247,2.2,-999.0,68,-99.99,,,0.00,Acu-Link.com,2013-05-30 20:04:00,
2013-05-30 16:19:00,84.0,72.7,30.02,WSW,247,4.2,-999.0,69,-99.99,,,0.00,Acu-Link.com,2013-05-30 20:19:00,
2013-05-30 16:34:00,83.5,72.2,30.02,SSE,157,2.7,-999.0,69,-99.99,,,0.00,Acu-Link.com,2013-05-30 20:34:00,
2013-05-30 16:49:00,83.7,72.0,30.01,SW,225,5.8,-999.0,68,-99.99,,,0.00,Acu-Link.com,2013-05-30 20:49:00,
2013-05-30 17:04:00,83.5,71.8,30.02,South,180,2.2,-999.0,68,-99.99,,,0.00,Acu-Link.com,2013-05-30 21:04:00,
2013-05-30 17:19:00,83.3,71.6,30.02,SSE,157,4.2,-999.0,68,-99.99,,,0.00,Acu-Link.com,2013-05-30 21:19:00,
2013-05-30 17:34:00,87.6,72.9,30.02,West,270,5.3,-999.0,62,-99.99,,,0.00,Acu-Link.com,2013-05-30 21:34:00,
2013-05-30 17:50:00,83.8,71.6,30.02,ESE,112,1.7,-999.0,67,-99.99,,,0.00,Acu-Link.com,2013-05-30 21:50:00,
2013-05-30 18:05:00,82.6,71.4,30.01,WSW,247,2.7,-999.0,69,-99.99,,,0.00,Acu-Link.com,2013-05-30 22:05:00,
2013-05-30 18:20:00,81.1,70.8,30.02,WSW,247,2.7,-999.0,71,-99.99,,,0.00,Acu-Link.com,2013-05-30 22:20:00,
2013-05-30 18:35:00,80.1,71.0,30.01,SE,135,3.2,-999.0,74,-99.99,,,0.00,Acu-Link.com,2013-05-30 22:35:00,
2013-05-30 18:50:00,79.7,71.1,30.01,South,180,2.2,-999.0,75,-99.99,,,0.00,Acu-Link.com,2013-05-30 22:50:00,
2013-05-30 19:05:00,78.8,70.6,30.01,South,180,2.7,-999.0,76,-99.99,,,0.00,Acu-Link.com,2013-05-30 23:05:00,
2013-05-30 19:20:00,78.4,71.0,30.01,WSW,247,1.1,-999.0,78,-99.99,,,0.00,Acu-Link.com,2013-05-30 23:20:00,
2013-05-30 19:35:00,77.7,70.3,30.01,SW,225,2.2,-999.0,78,-99.99,,,0.00,Acu-Link.com,2013-05-30 23:35:00,
2013-05-30 19:50:00,77.4,70.4,30.01,SSW,202,2.2,-999.0,79,-99.99,,,0.00,Acu-Link.com,2013-05-30 23:50:00,
2013-05-30 20:05:00,77.0,70.3,30.01,SSE,157,2.7,-999.0,80,-99.99,,,0.00,Acu-Link.com,2013-05-31 00:05:00,
2013-05-30 20:21:00,76.5,69.9,30.02,West,270,1.7,-999.0,80,-99.99,,,0.00,Acu-Link.com,2013-05-31 00:21:00,
2013-05-30 20:51:00,75.9,70.0,30.02,SSW,202,4.7,-999.0,82,-99.99,,,0.00,Acu-Link.com,2013-05-31 00:51:00,
2013-05-30 21:06:00,75.9,70.0,30.01,SW,225,2.2,-999.0,82,-99.99,,,0.00,Acu-Link.com,2013-05-31 01:06:00,
2013-05-30 21:21:00,75.6,70.1,30.01,East,90,0.0,-999.0,83,-99.99,,,0.00,Acu-Link.com,2013-05-31 01:21:00,
2013-05-30 21:36:00,75.6,70.1,30.01,WNW,292,2.2,-999.0,83,-99.99,,,0.00,Acu-Link.com,2013-05-31 01:36:00,
2013-05-30 21:51:00,75.6,70.1,30.02,West,270,1.1,-999.0,83,-99.99,,,0.00,Acu-Link.com,2013-05-31 01:51:00,
2013-05-30 22:06:00,75.4,70.2,30.03,SW,225,2.2,-999.0,84,-99.99,,,0.00,Acu-Link.com,2013-05-31 02:06:00,
2013-05-30 22:21:00,75.2,70.0,30.03,South,180,1.7,-999.0,84,-99.99,,,0.00,Acu-Link.com,2013-05-31 02:21:00,
2013-05-30 22:37:00,75.2,70.4,30.03,South,180,1.7,-999.0,85,-99.99,,,0.00,Acu-Link.com,2013-05-31 02:37:00,
2013-05-30 22:52:00,74.8,70.0,30.03,SW,225,3.2,-999.0,85,-99.99,,,0.00,Acu-Link.com,2013-05-31 02:52:00,
2013-05-30 23:07:00,74.8,70.0,30.02,SE,135,1.7,-999.0,85,-99.99,,,0.00,Acu-Link.com,2013-05-31 03:07:00,
2013-05-30 23:22:00,74.8,70.3,30.03,South,180,1.1,-999.0,86,-99.99,,,0.00,Acu-Link.com,2013-05-31 03:22:00,
2013-05-30 23:37:00,74.7,70.2,30.03,WNW,292,1.7,-999.0,86,-99.99,,,0.00,Acu-Link.com,2013-05-31 03:37:00,
2013-05-30 23:52:00,74.5,70.4,30.02,SSW,202,0.0,-999.0,87,-99.99,,,0.00,Acu-Link.com,2013-05-31 03:52:00,